Airfield :
LOGIN :

Register | Disclaimer

   EN    FR    IT 

 










Legend :    VFR   Marginal VFR   IFR   Intensive IFR   Very Intensive IFR
Visi :
Ceiling :
>= 8 km
>= 3000ft
5 to 8 km
1000 to 3000 ft
1500m to 5 km
500 to 1000 ft
800 to 1500m
200 to 500 ft
< 800m
< 200 ft
Symbols :   Thunderstorms  Fog  Heavy snow  Heavy precipitations  Wind > 20 kt
SIGMETs :     Misc.  Thunderstorms  Icing  Turbulence  Mountain Waves  Volcanic Ashes






- Airport Elevation : 989 ft
- IATA code : TRN


LIMF - Torino Caselle

CURRENT METAR :
  • 041120Z 09008KT 060V130 9999 FEW045 29/19 Q1017

EXPIRED METARs :
  • 041050Z 08011KT 050V110 9999 FEW045 29/17 Q1018
  • 041020Z 07009KT 040V110 CAVOK 30/19 Q1018
  • 040950Z 06006KT 030V100 CAVOK 29/16 Q1017
  • 040920Z 09004KT 040V140 CAVOK 29/16 Q1017
  • 040850Z VRB02KT CAVOK 29/18 Q1017

TAF TAF LIMF
Valid from the 04 at 12:00 until the 05 at 12:00 UTC


041100Z 0412/0512 06012KT 9999 SCT050
TEMPO 0412/0415 RA
TEMPO 0415/0424 TSRA
BECMG 0417/0419 VRB05KT



MET'MAP, your aeronautical weather chart ! - Copyright ORBIFLY December 2007 - Disclaimer

ORBIFLY MET'MAP TEAM :

Programming & Development : Alexandra Zaïnal
Original concept : Baudouin d'Aumeries
Technical & hardware support : Manuel Goepfert
Assistance : Marc-Olivier Méhu




SOURCES & CREDITS :

   NOAA